Long Grove, Iowa
Current Conditions -  °F | °C
As of 11:52 AM on Tuesday 21 Oct 2014 (Local Time) from KDVN Reporting Station
Clear Clear  
Wind Chill: 55°   Ceiling: Unl
Heat Index: 55°   Visibility: 10mi
Dew Point: 39°   Wind: 12mph
Humidity: 55%   Direction: 40°NE
Pressure: 30.21"   Gusts: NA
Location:  41.7°N, 90.58°W
Report Text: KDVN 211652Z AUTO 04010KT 10SM CLR 13/04 A3021 RMK AO2 SLP231 T01280039 TSNO
Loading
Personal Weather Stations






























Interactive Weather Map
Tropical Storm Tracking
New forecast layout! Learn more

10-Day Weather Forecast

Advertisements
Track Severe Weather on mobile